Time;durP1;ratioP1;P1;durP2;ratioP2;P2;SDS_P1;SDS_P2;PMS_P1;PMS_P2;Temp;Humidity;BMP_temperature;BMP_pressure;BME280_temperature;BME280_humidity;BME280_pressure;Samples;Min_cycle;Max_cycle;Signal;HPM_P1;HPM_P2
2024/02/05 00:02:35;;;;;;;6.67;2.40;;;;;;;;;;6224523;23;20472;-85
2024/02/05 00:05:26;;;;;;;5.30;1.90;;;;;;;;;;6224193;23;20416;-85
2024/02/05 00:08:15;;;;;;;5.53;2.23;;;;;;;;;;6248600;23;20433;-85
2024/02/05 00:10:49;;;;;;;7.83;1.97;;;;;;;;;;6223779;23;20400;-84
2024/02/05 00:13:31;;;;;;;8.50;2.27;;;;;;;;;;6224568;23;20416;-84
2024/02/05 00:16:00;;;;;;;7.30;2.27;;;;;;;;;;6220125;23;20949;-85
2024/02/05 00:18:27;;;;;;;7.60;2.60;;;;;;;;;;6248753;23;20436;-85
2024/02/05 00:20:56;;;;;;;6.47;2.50;;;;;;;;;;6198090;23;20400;-83
2024/02/05 00:23:31;;;;;;;4.97;2.57;;;;;;;;;;6218254;23;20387;-83
2024/02/05 00:25:58;;;;;;;6.97;2.50;;;;;;;;;;6221855;23;20460;-83
2024/02/05 00:28:25;;;;;;;6.90;2.67;;;;;;;;;;6250363;22;20434;-83
2024/02/05 00:30:58;;;;;;;6.40;2.03;;;;;;;;;;6248681;23;20397;-84
2024/02/05 00:33:26;;;;;;;7.13;2.70;;;;;;;;;;6219425;23;20404;-85
2024/02/05 00:35:53;;;;;;;6.47;2.00;;;;;;;;;;6245027;23;20409;-85
2024/02/05 00:38:20;;;;;;;3.47;1.87;;;;;;;;;;6245378;23;20510;-82
2024/02/05 00:40:48;;;;;;;10.90;3.33;;;;;;;;;;6219823;23;20459;-84
2024/02/05 00:43:15;;;;;;;8.80;2.50;;;;;;;;;;6220571;23;20412;-83
2024/02/05 00:45:43;;;;;;;8.57;2.37;;;;;;;;;;6247163;23;20397;-84
2024/02/05 00:48:10;;;;;;;11.00;2.80;;;;;;;;;;6245793;23;20438;-84
2024/02/05 00:50:41;;;;;;;7.53;2.90;;;;;;;;;;6219628;23;20412;-83
2024/02/05 00:53:09;;;;;;;7.43;2.77;;;;;;;;;;6218026;23;20417;-82
2024/02/05 00:55:37;;;;;;;9.03;2.90;;;;;;;;;;6216006;23;20409;-84
2024/02/05 00:58:04;;;;;;;5.77;2.37;;;;;;;;;;6227918;22;20420;-84
2024/02/05 01:00:31;;;;;;;12.10;3.93;;;;;;;;;;6218319;23;20496;-84
2024/02/05 01:02:58;;;;;;;6.87;2.47;;;;;;;;;;6249678;23;20508;-84
2024/02/05 01:05:25;;;;;;;5.97;2.53;;;;;;;;;;6211876;23;20419;-84
2024/02/05 01:07:53;;;;;;;7.10;2.43;;;;;;;;;;6215722;23;20977;-84
2024/02/05 01:10:20;;;;;;;4.67;2.60;;;;;;;;;;6216529;23;20512;-83
2024/02/05 01:12:48;;;;;;;3.23;2.63;;;;;;;;;;6242594;23;20424;-86
2024/02/05 01:15:16;;;;;;;10.03;2.67;;;;;;;;;;6218268;23;20515;-86
2024/02/05 01:17:43;;;;;;;6.67;3.20;;;;;;;;;;6217698;23;20448;-84
2024/02/05 01:20:10;;;;;;;6.67;2.47;;;;;;;;;;6247189;23;20413;-84
2024/02/05 01:22:39;;;;;;;6.17;2.47;;;;;;;;;;6219513;23;20400;-84
2024/02/05 01:25:08;;;;;;;8.53;2.70;;;;;;;;;;6215433;23;20441;-83
2024/02/05 01:27:35;;;;;;;5.60;2.77;;;;;;;;;;6238273;23;20895;-83
2024/02/05 01:30:03;;;;;;;10.70;2.90;;;;;;;;;;6213282;23;21199;-83
2024/02/05 01:32:30;;;;;;;13.27;3.27;;;;;;;;;;6244186;23;20400;-85
2024/02/05 01:34:57;;;;;;;13.20;4.67;;;;;;;;;;6261629;22;20476;-86
2024/02/05 01:37:25;;;;;;;4.20;2.80;;;;;;;;;;6239168;22;20412;-85
2024/02/05 01:39:52;;;;;;;9.67;3.07;;;;;;;;;;6239446;22;20440;-84
2024/02/05 01:44:52;;;;;;;14.40;3.00;;;;;;;;;;6232694;22;20493;-85
2024/02/05 01:47:19;;;;;;;9.63;3.70;;;;;;;;;;6232145;22;20433;-86
2024/02/05 01:49:47;;;;;;;8.20;2.37;;;;;;;;;;6212703;23;20922;-85
2024/02/05 01:52:17;;;;;;;8.33;3.30;;;;;;;;;;6210595;23;20881;-83
2024/02/05 01:54:44;;;;;;;7.80;2.63;;;;;;;;;;6208912;23;20435;-85
2024/02/05 01:57:12;;;;;;;9.60;2.90;;;;;;;;;;6210578;23;20413;-84
2024/02/05 01:59:40;;;;;;;12.40;3.23;;;;;;;;;;6218593;23;20430;-85
2024/02/05 02:02:07;;;;;;;15.73;3.80;;;;;;;;;;6217848;23;20421;-85
2024/02/05 02:04:35;;;;;;;5.83;2.97;;;;;;;;;;6221267;23;20421;-85
2024/02/05 02:07:03;;;;;;;11.20;3.53;;;;;;;;;;6217735;23;20497;-87
2024/02/05 02:09:32;;;;;;;12.10;3.60;;;;;;;;;;6213784;23;20426;-84
2024/02/05 02:11:59;;;;;;;10.17;3.13;;;;;;;;;;6213972;23;20390;-85
2024/02/05 02:14:26;;;;;;;12.83;3.73;;;;;;;;;;6214151;23;20402;-84
2024/02/05 02:16:54;;;;;;;7.80;2.83;;;;;;;;;;6209925;23;20390;-83
2024/02/05 02:19:29;;;;;;;5.93;2.40;;;;;;;;;;6196570;23;20922;-84
2024/02/05 02:22:14;;;;;;;10.07;3.20;;;;;;;;;;6203564;23;20870;-84
2024/02/05 02:24:44;;;;;;;16.43;3.73;;;;;;;;;;6204646;23;20470;-84
2024/02/05 02:27:12;;;;;;;9.87;3.20;;;;;;;;;;6203023;23;20449;-82
2024/02/05 02:29:39;;;;;;;8.80;3.07;;;;;;;;;;6198761;23;20439;-83
2024/02/05 02:32:26;;;;;;;13.80;3.10;;;;;;;;;;6198518;23;20409;-85
2024/02/05 02:34:55;;;;;;;11.43;4.60;;;;;;;;;;6198813;23;20413;-84
2024/02/05 02:37:26;;;;;;;11.53;3.00;;;;;;;;;;6200194;23;20430;-83
2024/02/05 02:39:56;;;;;;;11.23;3.17;;;;;;;;;;6195124;23;20456;-84
2024/02/05 02:42:24;;;;;;;9.83;3.37;;;;;;;;;;6197384;23;20422;-84
2024/02/05 02:44:53;;;;;;;8.80;3.00;;;;;;;;;;6198263;23;20768;-82
2024/02/05 02:47:20;;;;;;;9.90;3.43;;;;;;;;;;6199962;23;20445;-85
2024/02/05 02:49:48;;;;;;;9.20;3.50;;;;;;;;;;6204155;23;20501;-84
2024/02/05 02:52:15;;;;;;;18.97;4.40;;;;;;;;;;6203505;23;20421;-84
2024/02/05 02:54:42;;;;;;;12.50;4.53;;;;;;;;;;6208316;23;20745;-86
2024/02/05 02:57:09;;;;;;;10.37;3.53;;;;;;;;;;6210156;23;20656;-83
2024/02/05 02:59:36;;;;;;;14.43;3.33;;;;;;;;;;6208971;23;20491;-83
2024/02/05 03:02:03;;;;;;;10.57;3.73;;;;;;;;;;6204839;22;20416;-85
2024/02/05 03:04:30;;;;;;;9.63;3.90;;;;;;;;;;6215455;23;20405;-84
2024/02/05 03:06:58;;;;;;;11.53;3.87;;;;;;;;;;6207026;23;21374;-85
2024/02/05 03:09:25;;;;;;;10.20;2.87;;;;;;;;;;6208090;23;20429;-85
2024/02/05 03:11:52;;;;;;;7.17;4.07;;;;;;;;;;6204942;23;20417;-85
2024/02/05 03:14:23;;;;;;;11.10;4.07;;;;;;;;;;6208084;23;20405;-84
2024/02/05 03:16:50;;;;;;;8.50;3.17;;;;;;;;;;6207616;23;20408;-84
2024/02/05 03:19:17;;;;;;;11.37;3.67;;;;;;;;;;6206773;23;20433;-84
2024/02/05 03:21:44;;;;;;;10.10;3.40;;;;;;;;;;6205709;23;20402;-84
2024/02/05 03:24:11;;;;;;;11.63;3.30;;;;;;;;;;6202975;23;20416;-86
2024/02/05 03:26:38;;;;;;;12.23;3.67;;;;;;;;;;6203386;23;20445;-85
2024/02/05 03:29:06;;;;;;;9.97;4.43;;;;;;;;;;6203196;23;20429;-85
2024/02/05 03:31:34;;;;;;;10.33;3.40;;;;;;;;;;6204536;23;20409;-85
2024/02/05 03:34:01;;;;;;;13.07;4.00;;;;;;;;;;6202582;23;20895;-85
2024/02/05 03:36:28;;;;;;;11.97;3.20;;;;;;;;;;6203176;23;20409;-85
2024/02/05 03:38:56;;;;;;;5.13;2.43;;;;;;;;;;6202623;23;20838;-84
2024/02/05 03:41:23;;;;;;;10.30;3.30;;;;;;;;;;6200515;23;20418;-85
2024/02/05 03:43:50;;;;;;;9.07;3.00;;;;;;;;;;6204502;23;20413;-84
2024/02/05 03:46:17;;;;;;;12.73;3.17;;;;;;;;;;6191364;23;20405;-83
2024/02/05 03:48:51;;;;;;;11.00;3.77;;;;;;;;;;6216374;23;20426;-84
2024/02/05 03:51:18;;;;;;;14.30;3.73;;;;;;;;;;6217327;23;20405;-84
2024/02/05 03:53:45;;;;;;;8.23;3.03;;;;;;;;;;6220206;23;20413;-84
2024/02/05 03:56:12;;;;;;;15.37;4.90;;;;;;;;;;6219832;23;20433;-83
2024/02/05 03:58:39;;;;;;;12.50;3.57;;;;;;;;;;6229831;23;20414;-86
2024/02/05 04:01:06;;;;;;;13.13;3.97;;;;;;;;;;6231233;23;20406;-85
2024/02/05 04:03:33;;;;;;;9.83;3.60;;;;;;;;;;6235060;23;20448;-86
2024/02/05 04:06:00;;;;;;;11.33;3.40;;;;;;;;;;6235402;23;20508;-87
2024/02/05 04:08:27;;;;;;;11.43;3.73;;;;;;;;;;6234230;23;20465;-86
2024/02/05 04:10:56;;;;;;;11.10;3.40;;;;;;;;;;6234509;23;20407;-86
2024/02/05 04:13:23;;;;;;;7.27;4.10;;;;;;;;;;6232997;23;20419;-86
2024/02/05 04:15:50;;;;;;;12.87;3.90;;;;;;;;;;6233993;23;20621;-85
2024/02/05 04:18:17;;;;;;;9.80;3.73;;;;;;;;;;6233825;23;20891;-85
2024/02/05 04:20:44;;;;;;;10.50;4.50;;;;;;;;;;6233552;23;20417;-88
2024/02/05 04:23:11;;;;;;;10.10;3.30;;;;;;;;;;6233921;23;20418;-86
2024/02/05 04:25:38;;;;;;;12.57;3.40;;;;;;;;;;6232976;23;20423;-87
2024/02/05 04:28:06;;;;;;;9.87;3.47;;;;;;;;;;6226575;23;20758;-87
2024/02/05 04:30:37;;;;;;;11.80;3.93;;;;;;;;;;6222974;23;20469;-86
2024/02/05 04:33:04;;;;;;;7.10;3.00;;;;;;;;;;6221594;23;20557;-87
2024/02/05 04:35:34;;;;;;;11.63;3.07;;;;;;;;;;6221415;23;20757;-85
2024/02/05 04:38:01;;;;;;;8.70;3.00;;;;;;;;;;6223474;23;20501;-87
2024/02/05 04:40:29;;;;;;;12.83;3.40;;;;;;;;;;6220298;23;20508;-87
2024/02/05 04:42:57;;;;;;;8.17;2.63;;;;;;;;;;6221619;23;20449;-87
2024/02/05 04:45:24;;;;;;;9.87;3.10;;;;;;;;;;6222334;23;21188;-86
2024/02/05 04:47:51;;;;;;;10.13;3.33;;;;;;;;;;6219489;23;20473;-87
2024/02/05 04:50:18;;;;;;;11.83;3.03;;;;;;;;;;6221753;23;20402;-87
2024/02/05 04:52:47;;;;;;;16.57;3.70;;;;;;;;;;6225278;23;20410;-86
2024/02/05 04:55:14;;;;;;;13.10;3.27;;;;;;;;;;6232270;23;20397;-86
2024/02/05 04:57:48;;;;;;;10.33;3.87;;;;;;;;;;6228540;23;20520;-85
2024/02/05 05:00:16;;;;;;;12.03;3.23;;;;;;;;;;6231632;23;20400;-87
2024/02/05 05:02:43;;;;;;;14.03;4.30;;;;;;;;;;6231136;23;20414;-86
2024/02/05 05:05:10;;;;;;;15.50;3.30;;;;;;;;;;6231228;23;20935;-86
2024/02/05 05:07:38;;;;;;;12.27;3.30;;;;;;;;;;6233100;23;20445;-86
2024/02/05 05:10:05;;;;;;;12.73;5.50;;;;;;;;;;6232000;23;20414;-86
2024/02/05 05:12:32;;;;;;;9.00;3.13;;;;;;;;;;6234089;23;20422;-88
2024/02/05 05:14:59;;;;;;;16.20;3.33;;;;;;;;;;6230114;23;20406;-86
2024/02/05 05:17:27;;;;;;;11.37;2.80;;;;;;;;;;6229754;23;20417;-87
2024/02/05 05:19:54;;;;;;;9.73;2.80;;;;;;;;;;6230775;23;20485;-86
2024/02/05 05:22:21;;;;;;;8.07;2.77;;;;;;;;;;6228099;23;20422;-87
2024/02/05 05:24:48;;;;;;;8.90;3.00;;;;;;;;;;6229324;23;20448;-86
2024/02/05 05:27:15;;;;;;;15.50;4.13;;;;;;;;;;6232488;23;20617;-87
2024/02/05 05:29:42;;;;;;;15.10;3.50;;;;;;;;;;6228352;23;20425;-86
2024/02/05 05:32:09;;;;;;;12.50;2.70;;;;;;;;;;6224760;23;20477;-86
2024/02/05 05:34:37;;;;;;;9.17;3.17;;;;;;;;;;6223374;23;20410;-87
2024/02/05 05:37:04;;;;;;;9.80;3.77;;;;;;;;;;6222716;23;20414;-86
2024/02/05 05:39:31;;;;;;;12.00;4.03;;;;;;;;;;6225484;23;20489;-86
2024/02/05 05:41:58;;;;;;;10.63;3.83;;;;;;;;;;6231949;23;20398;-86
2024/02/05 05:44:25;;;;;;;13.87;3.50;;;;;;;;;;6219514;23;20417;-86
2024/02/05 05:46:53;;;;;;;12.70;3.30;;;;;;;;;;6218061;23;20431;-86
2024/02/05 05:49:20;;;;;;;10.00;3.93;;;;;;;;;;6216502;23;20912;-85
2024/02/05 05:51:47;;;;;;;11.90;3.27;;;;;;;;;;6214925;23;20437;-86
2024/02/05 05:54:14;;;;;;;9.23;3.60;;;;;;;;;;6218655;23;20466;-85
2024/02/05 05:56:41;;;;;;;9.87;4.23;;;;;;;;;;6218114;23;20485;-85
2024/02/05 05:59:08;;;;;;;18.13;4.77;;;;;;;;;;6222998;23;20430;-85
2024/02/05 06:01:36;;;;;;;10.90;4.73;;;;;;;;;;6219395;23;20446;-86
2024/02/05 06:04:03;;;;;;;16.37;4.30;;;;;;;;;;6222791;23;20416;-85
2024/02/05 06:06:31;;;;;;;9.07;4.23;;;;;;;;;;6221319;23;20428;-87
2024/02/05 06:08:59;;;;;;;9.00;2.97;;;;;;;;;;6221708;23;20445;-85
2024/02/05 06:11:26;;;;;;;12.37;3.50;;;;;;;;;;6219473;23;20401;-87
2024/02/05 06:13:53;;;;;;;7.50;3.40;;;;;;;;;;6223186;23;20433;-87
2024/02/05 06:16:21;;;;;;;14.53;4.10;;;;;;;;;;6222941;23;20732;-86
2024/02/05 06:18:48;;;;;;;13.57;3.87;;;;;;;;;;6223793;23;20501;-84
2024/02/05 06:21:15;;;;;;;8.43;3.50;;;;;;;;;;6217076;23;20401;-86
2024/02/05 06:23:42;;;;;;;10.73;3.50;;;;;;;;;;6222054;23;20413;-87
2024/02/05 06:26:11;;;;;;;16.43;4.40;;;;;;;;;;6220824;23;20449;-87
2024/02/05 06:28:41;;;;;;;12.80;3.73;;;;;;;;;;6222130;23;20579;-86
2024/02/05 06:31:10;;;;;;;9.27;3.50;;;;;;;;;;6221444;23;20470;-87
2024/02/05 06:33:37;;;;;;;10.60;3.77;;;;;;;;;;6235954;23;20402;-85
2024/02/05 06:36:04;;;;;;;11.57;4.70;;;;;;;;;;6238856;22;20397;-86
2024/02/05 06:38:31;;;;;;;6.77;3.10;;;;;;;;;;6230003;22;20521;-82
2024/02/05 06:41:08;;;;;;;8.07;4.03;;;;;;;;;;6214243;23;20390;-87
2024/02/05 06:43:43;;;;;;;8.73;4.10;;;;;;;;;;6215171;23;20429;-87
2024/02/05 06:46:13;;;;;;;10.80;4.40;;;;;;;;;;6215155;23;20390;-86
2024/02/05 06:48:40;;;;;;;10.77;4.53;;;;;;;;;;6217485;23;20452;-86
2024/02/05 06:51:13;;;;;;;10.60;3.90;;;;;;;;;;6217637;23;20406;-86
2024/02/05 06:53:42;;;;;;;11.43;3.67;;;;;;;;;;6220205;23;20441;-86
2024/02/05 06:56:12;;;;;;;15.33;4.23;;;;;;;;;;6220060;23;20659;-88
2024/02/05 06:58:55;;;;;;;14.10;3.97;;;;;;;;;;6219542;23;20434;-85
2024/02/05 07:01:46;;;;;;;10.20;3.63;;;;;;;;;;6221121;23;20444;-87
2024/02/05 07:04:24;;;;;;;10.17;3.80;;;;;;;;;;6222338;23;20386;-86
2024/02/05 07:06:57;;;;;;;12.80;3.40;;;;;;;;;;6224309;23;20724;-86
2024/02/05 07:09:43;;;;;;;10.67;3.87;;;;;;;;;;6221105;23;20768;-86
2024/02/05 07:12:11;;;;;;;10.53;3.97;;;;;;;;;;6218995;23;20426;-86
2024/02/05 07:15:00;;;;;;;13.60;4.60;;;;;;;;;;6223160;23;20394;-88
2024/02/05 07:17:36;;;;;;;11.70;4.10;;;;;;;;;;6218372;23;20405;-87
2024/02/05 07:20:06;;;;;;;9.00;3.80;;;;;;;;;;6220123;23;20429;-87
2024/02/05 07:22:45;;;;;;;8.30;3.80;;;;;;;;;;6223486;23;20404;-86
2024/02/05 07:25:13;;;;;;;13.13;3.90;;;;;;;;;;6224626;23;20712;-85
2024/02/05 07:27:46;;;;;;;11.27;4.10;;;;;;;;;;6222571;23;20899;-86
2024/02/05 07:30:22;;;;;;;11.03;2.77;;;;;;;;;;6219613;23;20480;-87
2024/02/05 07:33:04;;;;;;;11.07;3.30;;;;;;;;;;6222092;23;20419;-86
2024/02/05 07:35:40;;;;;;;10.07;3.40;;;;;;;;;;6222021;23;20741;-86
2024/02/05 07:38:09;;;;;;;10.43;3.10;;;;;;;;;;6222935;23;20437;-84
2024/02/05 07:40:46;;;;;;;10.87;2.63;;;;;;;;;;6223598;23;20393;-86
2024/02/05 07:43:17;;;;;;;7.40;2.93;;;;;;;;;;6221930;23;20452;-87
2024/02/05 07:45:44;;;;;;;11.43;3.10;;;;;;;;;;6223260;23;20406;-86
2024/02/05 07:48:13;;;;;;;8.97;3.10;;;;;;;;;;6227006;23;20441;-86
2024/02/05 07:50:41;;;;;;;7.90;2.73;;;;;;;;;;6228792;23;20465;-88
2024/02/05 07:53:15;;;;;;;10.23;2.67;;;;;;;;;;6227221;23;20409;-85
2024/02/05 07:55:42;;;;;;;9.50;3.63;;;;;;;;;;6230418;22;20469;-87
2024/02/05 07:58:10;;;;;;;10.80;2.90;;;;;;;;;;6230740;22;20440;-86
2024/02/05 08:00:37;;;;;;;8.30;3.20;;;;;;;;;;6222327;23;20405;-86
2024/02/05 08:05:40;;;;;;;12.37;4.00;;;;;;;;;;6249842;23;20405;-85
2024/02/05 08:08:09;;;;;;;9.63;2.83;;;;;;;;;;6203898;23;20447;-86
2024/02/05 08:10:41;;;;;;;8.80;3.10;;;;;;;;;;6232993;22;21360;-88
2024/02/05 08:13:09;;;;;;;8.17;2.97;;;;;;;;;;6232278;22;20455;-84
2024/02/05 08:18:28;;;;;;;9.90;3.50;;;;;;;;;;6272769;22;20431;-84
2024/02/05 08:21:10;;;;;;;8.37;2.23;;;;;;;;;;6272995;22;20446;-86
2024/02/05 08:23:41;;;;;;;8.43;4.20;;;;;;;;;;6231783;23;20487;-86
2024/02/05 08:26:13;;;;;;;6.40;3.13;;;;;;;;;;6256431;23;20412;-86
2024/02/05 08:28:47;;;;;;;11.33;3.10;;;;;;;;;;6229967;23;20444;-87
2024/02/05 08:31:16;;;;;;;6.60;2.50;;;;;;;;;;6254538;23;20393;-86
2024/02/05 08:33:48;;;;;;;10.27;2.87;;;;;;;;;;6225384;23;20420;-87
2024/02/05 08:36:19;;;;;;;10.07;3.77;;;;;;;;;;6225698;23;20408;-84
2024/02/05 08:38:54;;;;;;;7.50;3.23;;;;;;;;;;6225842;23;20727;-87
2024/02/05 08:41:21;;;;;;;10.73;3.40;;;;;;;;;;6251213;23;20821;-86
2024/02/05 08:43:51;;;;;;;7.30;3.43;;;;;;;;;;6224887;23;20443;-87
2024/02/05 08:46:24;;;;;;;10.43;2.90;;;;;;;;;;6252901;23;20458;-85
2024/02/05 08:48:56;;;;;;;5.50;2.30;;;;;;;;;;6225824;23;20445;-87
2024/02/05 08:51:23;;;;;;;7.83;3.57;;;;;;;;;;6222884;23;20737;-86
2024/02/05 08:53:56;;;;;;;10.23;3.20;;;;;;;;;;6224706;23;20412;-87
2024/02/05 08:56:25;;;;;;;8.80;2.90;;;;;;;;;;6252543;23;20455;-87
2024/02/05 08:58:53;;;;;;;10.90;3.30;;;;;;;;;;6252140;23;20499;-86
2024/02/05 09:01:20;;;;;;;7.70;2.90;;;;;;;;;;6251619;23;20436;-86
2024/02/05 09:03:47;;;;;;;6.90;3.10;;;;;;;;;;6252507;23;20836;-86
2024/02/05 09:06:15;;;;;;;6.53;2.27;;;;;;;;;;6253437;23;20432;-86
2024/02/05 09:08:42;;;;;;;7.23;2.97;;;;;;;;;;6224795;23;20444;-87
2024/02/05 09:11:24;;;;;;;8.53;2.90;;;;;;;;;;6227513;23;20900;-87
2024/02/05 09:13:58;;;;;;;11.67;3.17;;;;;;;;;;6225661;23;20420;-86
2024/02/05 09:16:25;;;;;;;10.10;2.60;;;;;;;;;;6252036;23;20405;-85
2024/02/05 09:18:52;;;;;;;7.93;2.70;;;;;;;;;;6253444;23;20432;-86
2024/02/05 09:21:23;;;;;;;10.00;2.90;;;;;;;;;;6251931;23;20416;-87
2024/02/05 09:23:52;;;;;;;4.60;2.30;;;;;;;;;;6250767;23;20409;-86
2024/02/05 09:26:22;;;;;;;7.97;2.70;;;;;;;;;;6225261;23;20405;-86
2024/02/05 09:28:49;;;;;;;7.93;2.63;;;;;;;;;;6251578;23;20480;-87
2024/02/05 09:31:19;;;;;;;8.47;3.03;;;;;;;;;;6222853;23;20411;-86
2024/02/05 09:33:49;;;;;;;13.17;3.20;;;;;;;;;;6227067;23;20436;-85
2024/02/05 09:36:21;;;;;;;12.30;3.83;;;;;;;;;;6227714;23;20408;-85
2024/02/05 09:38:58;;;;;;;11.40;2.93;;;;;;;;;;6224951;23;20437;-87
2024/02/05 09:41:42;;;;;;;4.87;2.40;;;;;;;;;;6225600;23;20416;-86
2024/02/05 09:44:18;;;;;;;8.83;3.53;;;;;;;;;;6227370;23;20419;-87
2024/02/05 09:46:59;;;;;;;11.13;3.33;;;;;;;;;;6226625;23;20408;-85
2024/02/05 09:49:33;;;;;;;14.00;3.47;;;;;;;;;;6252678;23;20468;-86
2024/02/05 09:52:07;;;;;;;11.33;3.70;;;;;;;;;;6252575;23;20932;-86
2024/02/05 09:54:41;;;;;;;12.40;3.10;;;;;;;;;;6228646;23;20507;-86
2024/02/05 09:57:14;;;;;;;10.57;3.50;;;;;;;;;;6226178;23;20399;-85
2024/02/05 09:59:50;;;;;;;17.83;4.00;;;;;;;;;;6253530;23;20432;-86
2024/02/05 10:02:22;;;;;;;6.60;3.20;;;;;;;;;;6252434;23;20478;-87
2024/02/05 10:04:50;;;;;;;10.33;4.40;;;;;;;;;;6255403;23;20424;-88
2024/02/05 10:07:26;;;;;;;8.17;2.70;;;;;;;;;;6233839;23;20471;-87
2024/02/05 10:09:54;;;;;;;8.13;3.13;;;;;;;;;;6264737;23;20893;-88
2024/02/05 10:12:34;;;;;;;9.37;2.67;;;;;;;;;;6242391;23;20400;-87
2024/02/05 10:15:11;;;;;;;7.73;2.77;;;;;;;;;;6232424;23;20482;-86
2024/02/05 10:17:42;;;;;;;9.50;2.63;;;;;;;;;;6251694;23;20874;-85
2024/02/05 10:20:12;;;;;;;10.90;3.23;;;;;;;;;;6247781;23;20471;-84
2024/02/05 10:22:49;;;;;;;8.00;3.60;;;;;;;;;;6224227;23;20405;-83
2024/02/05 10:25:17;;;;;;;12.43;3.20;;;;;;;;;;6236095;22;20411;-88
2024/02/05 10:27:45;;;;;;;10.07;2.40;;;;;;;;;;6252767;23;20767;-86
2024/02/05 10:30:17;;;;;;;10.33;2.87;;;;;;;;;;6252986;23;20452;-86
2024/02/05 10:32:44;;;;;;;8.93;2.80;;;;;;;;;;6251963;23;20471;-84
2024/02/05 10:35:16;;;;;;;11.43;3.60;;;;;;;;;;6250721;23;20781;-84
2024/02/05 10:37:43;;;;;;;9.90;2.63;;;;;;;;;;6248178;23;20746;-85
2024/02/05 10:40:11;;;;;;;9.93;3.00;;;;;;;;;;6251473;23;20495;-87
2024/02/05 10:42:38;;;;;;;7.70;2.63;;;;;;;;;;6223725;23;20474;-85
2024/02/05 10:45:07;;;;;;;5.93;3.80;;;;;;;;;;6226957;23;20392;-86
2024/02/05 10:47:34;;;;;;;7.33;3.27;;;;;;;;;;6250925;23;20488;-86
2024/02/05 10:50:02;;;;;;;6.37;2.57;;;;;;;;;;6250205;23;20436;-87
2024/02/05 10:52:33;;;;;;;6.07;2.97;;;;;;;;;;6224731;23;20412;-85
2024/02/05 10:55:05;;;;;;;9.17;2.90;;;;;;;;;;6251737;23;20405;-86
2024/02/05 10:57:32;;;;;;;9.77;3.57;;;;;;;;;;6223605;23;20405;-86
2024/02/05 10:59:59;;;;;;;6.73;3.33;;;;;;;;;;6224004;23;20468;-84
2024/02/05 11:02:29;;;;;;;5.27;3.00;;;;;;;;;;6252700;23;20419;-86
2024/02/05 11:04:56;;;;;;;6.30;2.63;;;;;;;;;;6253690;23;20456;-86
2024/02/05 11:07:25;;;;;;;7.37;3.60;;;;;;;;;;6250910;23;20443;-87
2024/02/05 11:09:53;;;;;;;10.87;2.80;;;;;;;;;;6254493;23;20459;-88
2024/02/05 11:12:22;;;;;;;8.60;2.93;;;;;;;;;;6227468;23;20479;-87
2024/02/05 11:14:52;;;;;;;9.27;2.80;;;;;;;;;;6261189;23;20377;-86
2024/02/05 11:17:20;;;;;;;6.00;2.73;;;;;;;;;;6227126;23;20467;-87
2024/02/05 11:19:49;;;;;;;4.87;2.60;;;;;;;;;;6230531;23;20460;-86
2024/02/05 11:22:17;;;;;;;9.70;3.10;;;;;;;;;;6228315;23;20464;-85
2024/02/05 11:24:46;;;;;;;8.47;3.93;;;;;;;;;;6256859;23;20970;-86
2024/02/05 11:27:16;;;;;;;8.00;2.63;;;;;;;;;;6268526;22;20388;-87
2024/02/05 11:29:43;;;;;;;5.80;2.63;;;;;;;;;;6247318;23;20444;-86
2024/02/05 11:32:33;;;;;;;9.97;3.20;;;;;;;;;;6248100;23;20480;-85
2024/02/05 11:35:00;;;;;;;12.83;3.90;;;;;;;;;;6222821;23;20416;-85
2024/02/05 11:37:42;;;;;;;8.53;3.17;;;;;;;;;;6225943;23;20403;-83
2024/02/05 11:40:17;;;;;;;7.73;2.97;;;;;;;;;;6227287;23;20409;-85
2024/02/05 11:42:47;;;;;;;6.50;2.40;;;;;;;;;;6252911;23;20474;-86
2024/02/05 11:45:14;;;;;;;13.13;3.40;;;;;;;;;;6232157;23;20423;-86
2024/02/05 11:47:50;;;;;;;11.00;4.37;;;;;;;;;;6233628;23;20428;-88
2024/02/05 11:50:28;;;;;;;11.43;3.50;;;;;;;;;;6255436;23;20516;-86
2024/02/05 11:52:55;;;;;;;8.37;2.67;;;;;;;;;;6255007;23;20415;-87
2024/02/05 11:55:39;;;;;;;6.60;2.90;;;;;;;;;;6255629;23;20456;-86
2024/02/05 11:58:19;;;;;;;11.67;3.23;;;;;;;;;;6226027;23;20428;-85
2024/02/05 12:00:46;;;;;;;5.50;2.90;;;;;;;;;;6248918;22;20932;-86
2024/02/05 12:03:14;;;;;;;5.87;2.80;;;;;;;;;;6285333;22;20414;-87
2024/02/05 12:05:42;;;;;;;8.10;2.83;;;;;;;;;;6258299;22;20456;-85
2024/02/05 12:08:09;;;;;;;8.30;2.87;;;;;;;;;;6257575;22;20451;-87
2024/02/05 12:10:37;;;;;;;11.33;3.43;;;;;;;;;;6257033;22;20470;-86
2024/02/05 12:13:04;;;;;;;10.30;2.67;;;;;;;;;;6259199;22;20446;-85
2024/02/05 12:15:33;;;;;;;6.63;2.50;;;;;;;;;;6286321;22;20485;-84
2024/02/05 12:18:01;;;;;;;10.37;3.23;;;;;;;;;;6258470;22;20396;-85
2024/02/05 12:20:29;;;;;;;7.40;2.70;;;;;;;;;;6284765;22;20422;-84
2024/02/05 12:22:57;;;;;;;9.00;3.10;;;;;;;;;;6258605;22;20415;-86
2024/02/05 12:25:25;;;;;;;6.20;2.70;;;;;;;;;;6285522;22;20412;-86
2024/02/05 12:27:57;;;;;;;9.47;3.20;;;;;;;;;;6259667;22;20424;-88
2024/02/05 12:30:24;;;;;;;8.10;3.00;;;;;;;;;;6256946;22;20440;-86
2024/02/05 12:32:55;;;;;;;10.30;3.00;;;;;;;;;;6256566;22;20419;-86
2024/02/05 12:35:23;;;;;;;12.30;3.10;;;;;;;;;;6258985;22;20408;-86
2024/02/05 12:37:51;;;;;;;6.47;3.13;;;;;;;;;;6253501;22;20761;-86
2024/02/05 12:40:19;;;;;;;8.87;3.40;;;;;;;;;;6257331;22;20402;-86
2024/02/05 12:42:46;;;;;;;7.93;3.57;;;;;;;;;;6262847;22;20408;-86
2024/02/05 12:45:13;;;;;;;6.20;3.80;;;;;;;;;;6262656;22;20858;-86
2024/02/05 12:47:41;;;;;;;13.03;3.17;;;;;;;;;;6256036;22;20823;-85
2024/02/05 12:50:09;;;;;;;8.27;2.90;;;;;;;;;;6263553;22;20475;-86
2024/02/05 12:52:37;;;;;;;8.03;2.90;;;;;;;;;;6260162;22;20408;-85
2024/02/05 12:55:06;;;;;;;9.37;3.30;;;;;;;;;;6258952;22;20915;-85
2024/02/05 12:57:34;;;;;;;8.23;4.00;;;;;;;;;;6258208;22;20426;-84
2024/02/05 13:00:04;;;;;;;12.27;3.57;;;;;;;;;;6284848;22;20432;-84
2024/02/05 13:02:31;;;;;;;8.90;2.90;;;;;;;;;;6257859;22;21096;-86
2024/02/05 13:04:59;;;;;;;11.10;2.80;;;;;;;;;;6285502;22;20412;-86
2024/02/05 13:07:26;;;;;;;8.83;3.37;;;;;;;;;;6285615;22;20463;-86
2024/02/05 13:09:59;;;;;;;8.47;4.00;;;;;;;;;;6284031;22;20944;-87
2024/02/05 13:12:27;;;;;;;8.37;4.00;;;;;;;;;;6286049;22;20392;-87
2024/02/05 13:14:58;;;;;;;4.20;3.00;;;;;;;;;;6257168;22;20391;-86
2024/02/05 13:17:33;;;;;;;6.57;2.90;;;;;;;;;;6287627;22;20494;-83
2024/02/05 13:20:00;;;;;;;9.90;3.57;;;;;;;;;;6285851;22;20849;-84
2024/02/05 13:22:28;;;;;;;9.27;3.23;;;;;;;;;;6284927;22;20405;-85
2024/02/05 13:24:56;;;;;;;12.80;3.50;;;;;;;;;;6257137;22;20498;-86
2024/02/05 13:27:24;;;;;;;5.93;3.50;;;;;;;;;;6285685;22;20454;-86
2024/02/05 13:29:53;;;;;;;7.97;3.53;;;;;;;;;;6286061;22;20447;-85
2024/02/05 13:32:21;;;;;;;5.47;2.63;;;;;;;;;;6262835;22;20409;-86
2024/02/05 13:34:48;;;;;;;7.70;3.50;;;;;;;;;;6264271;22;20479;-84
2024/02/05 13:37:15;;;;;;;6.80;2.77;;;;;;;;;;6291412;22;20403;-86
2024/02/05 13:39:44;;;;;;;5.97;3.43;;;;;;;;;;6261685;22;20436;-86
2024/02/05 13:42:21;;;;;;;5.57;3.00;;;;;;;;;;6250146;22;21158;-83
2024/02/05 13:45:03;;;;;;;5.73;2.80;;;;;;;;;;6265880;22;20480;-85
2024/02/05 13:47:30;;;;;;;8.27;3.63;;;;;;;;;;6244419;22;20452;-85
2024/02/05 13:49:57;;;;;;;8.17;3.10;;;;;;;;;;6243934;22;20499;-85
2024/02/05 13:52:24;;;;;;;4.80;3.03;;;;;;;;;;6245246;22;20964;-84
2024/02/05 13:54:52;;;;;;;10.50;3.90;;;;;;;;;;6272728;22;20411;-85
2024/02/05 13:57:19;;;;;;;5.97;3.40;;;;;;;;;;6246782;22;20408;-84
2024/02/05 13:59:46;;;;;;;7.40;3.60;;;;;;;;;;6248084;22;20431;-84
2024/02/05 14:02:13;;;;;;;10.10;3.13;;;;;;;;;;6272487;22;20416;-84
2024/02/05 14:04:40;;;;;;;9.13;3.50;;;;;;;;;;6246469;22;20415;-85
2024/02/05 14:07:09;;;;;;;10.70;3.57;;;;;;;;;;6246925;22;20391;-84
2024/02/05 14:09:37;;;;;;;11.20;3.50;;;;;;;;;;6277641;22;20440;-86
2024/02/05 14:12:05;;;;;;;7.83;4.10;;;;;;;;;;6274968;22;20407;-85
2024/02/05 14:14:35;;;;;;;9.40;3.17;;;;;;;;;;6273838;22;20419;-84
2024/02/05 14:17:10;;;;;;;9.17;3.40;;;;;;;;;;6245638;22;20461;-84
2024/02/05 14:19:37;;;;;;;5.53;3.23;;;;;;;;;;6247162;22;20739;-85
2024/02/05 14:22:05;;;;;;;4.80;3.00;;;;;;;;;;6271022;22;20514;-85
2024/02/05 14:24:36;;;;;;;10.10;4.17;;;;;;;;;;6246841;22;20411;-85
2024/02/05 14:27:03;;;;;;;7.67;4.03;;;;;;;;;;6242585;22;20415;-83
2024/02/05 14:29:38;;;;;;;7.13;3.00;;;;;;;;;;6245201;22;20714;-83
2024/02/05 14:32:14;;;;;;;7.90;3.87;;;;;;;;;;6270076;22;20399;-83
2024/02/05 14:34:46;;;;;;;7.33;2.60;;;;;;;;;;6273219;22;20408;-83
2024/02/05 14:37:26;;;;;;;10.90;3.33;;;;;;;;;;6247554;22;20383;-82
2024/02/05 14:39:54;;;;;;;4.53;3.17;;;;;;;;;;6239166;22;20439;-82
2024/02/05 14:42:28;;;;;;;12.27;3.97;;;;;;;;;;6236869;22;20442;-82
2024/02/05 14:44:58;;;;;;;12.03;4.17;;;;;;;;;;6253122;22;20396;-84
2024/02/05 14:47:28;;;;;;;10.33;3.70;;;;;;;;;;6293655;22;20411;-83
2024/02/05 14:49:58;;;;;;;9.53;3.17;;;;;;;;;;6294799;22;20890;-83
2024/02/05 14:52:32;;;;;;;7.50;3.23;;;;;;;;;;6269970;22;20392;-84
2024/02/05 14:55:06;;;;;;;5.40;3.13;;;;;;;;;;6270491;22;20482;-84
2024/02/05 14:57:48;;;;;;;5.57;1.90;;;;;;;;;;6290621;22;20391;-85
2024/02/05 15:00:16;;;;;;;8.27;3.13;;;;;;;;;;6255014;22;20403;-85
2024/02/05 15:06:14;;;;;;;7.33;2.47;;;;;;;;;;6280512;22;20429;-83